Burton, MI (48509)

11:54 PM EST on February 07, 2016 (GMT -0500)
The Newarks @ Rollingwood | | Change Station
CLOSE
Current Station
Personal Weather Station
Location: Flint, MI
Elevation: 738 ft
Nearby Weather Stations

Elev 738 ft 43.06 °N, 83.66 °W | Updated 52 seconds ago

Overcast
Overcast
40.6 °F
Feels Like 41 °F
N
2.6
Wind Variable Wind from WSW
Gusts 2.6 mph

Today
High -- | Low -- °F
--% Chance of Precip.
Yesterday
High -- | Low -- °F
Precip. -- in
Pressure 29.71 in
Visibility 10.0 miles
Clouds Mostly Cloudy 3700 ft
Windchill 41 °F
Dew Point 10 °F
Humidity 28%
Rainfall 0.00 in
Snow Depth Not available.
7:43 AM 5:54 PM
Waning Crescent, 0% visible
METAR KFNT 080353Z 21006KT 10SM BKN037 06/M01 A2969 RMK AO2 SLP060 T00611011
Pressure 29.71 in
Visibility 10.0 miles
Clouds Mostly Cloudy 3700 ft
Windchill 41 °F
Dew Point 10 °F
Humidity 28%
Rainfall 0.00 in
Snow Depth Not available.
7:43 AM 5:54 PM
Waning Crescent, 0% visible
METAR KFNT 080353Z 21006KT 10SM BKN037 06/M01 A2969 RMK AO2 SLP060 T00611011

10-Day Weather Forecast

Almanac

Astronomy

Feb. 07, 2016 Rise Set
Actual Time
Civil Twilight
Nautical Twilight
Astronomical Twilight
Moon
Length of Visible Light
Length of Day
Tomorrow will be .
, % of the Moon is Illuminated

Today's Extremes

State Highs State Lows

Community

WunderPhotos

Upload Photos

1,891,382 photos uploaded!

WunderBlog® & News

Nearby

Air Quality

  Air Quality AQ Index Pollutant
Not available.

Snow Depth

Station Depth Elevation

Earthquake Activity

City Distance Mag. Time & Date
Minimum magnitude displayed is 2.5.

Coastal Water Temperatures

Place Temperature

Stations

Nearby Weather Stations

Station Location Temp. Windchill Dew Point Humidity Wind Precip. Elev Updated Type
                   

Watches & Warnings

There are currently no watches in effect.